sensor_id;sensor_type;location;lat;lon;timestamp;pressure;altitude;pressure_sealevel;temperature;humidity
7834;BME280;3962;42.696;23.354;2022-07-25T00:01:32;95301.44;;;24.96;65.83
7834;BME280;3962;42.696;23.354;2022-07-25T00:03:59;95304.25;;;24.89;65.70
7834;BME280;3962;42.696;23.354;2022-07-25T00:06:26;95300.00;;;24.82;66.44
7834;BME280;3962;42.696;23.354;2022-07-25T00:08:54;95303.31;;;24.84;66.01
7834;BME280;3962;42.696;23.354;2022-07-25T00:11:20;95302.16;;;24.91;65.70
7834;BME280;3962;42.696;23.354;2022-07-25T00:13:47;95304.88;;;24.91;65.88
7834;BME280;3962;42.696;23.354;2022-07-25T00:16:14;95292.78;;;24.87;65.37
7834;BME280;3962;42.696;23.354;2022-07-25T00:18:41;95290.91;;;24.88;65.69
7834;BME280;3962;42.696;23.354;2022-07-25T00:21:07;95300.13;;;24.87;65.71
7834;BME280;3962;42.696;23.354;2022-07-25T00:23:35;95290.19;;;24.81;65.42
7834;BME280;3962;42.696;23.354;2022-07-25T00:26:03;95294.78;;;24.80;65.67
7834;BME280;3962;42.696;23.354;2022-07-25T00:28:30;95286.16;;;24.83;65.43
7834;BME280;3962;42.696;23.354;2022-07-25T00:30:57;95280.72;;;24.83;65.28
7834;BME280;3962;42.696;23.354;2022-07-25T00:33:24;95268.41;;;24.81;64.64
7834;BME280;3962;42.696;23.354;2022-07-25T00:35:50;95272.56;;;24.83;64.21
7834;BME280;3962;42.696;23.354;2022-07-25T00:38:17;95266.97;;;24.78;64.52
7834;BME280;3962;42.696;23.354;2022-07-25T00:40:44;95266.13;;;24.78;64.14
7834;BME280;3962;42.696;23.354;2022-07-25T00:43:12;95266.38;;;24.76;64.35
7834;BME280;3962;42.696;23.354;2022-07-25T00:45:39;95263.31;;;24.73;64.60
7834;BME280;3962;42.696;23.354;2022-07-25T00:48:06;95264.22;;;24.67;64.62
7834;BME280;3962;42.696;23.354;2022-07-25T00:50:34;95266.94;;;24.67;64.97
7834;BME280;3962;42.696;23.354;2022-07-25T00:53:01;95270.97;;;24.64;64.76
7834;BME280;3962;42.696;23.354;2022-07-25T00:55:28;95262.44;;;24.61;64.92
7834;BME280;3962;42.696;23.354;2022-07-25T00:57:55;95265.34;;;24.48;65.62
7834;BME280;3962;42.696;23.354;2022-07-25T01:00:23;95268.63;;;24.38;65.81
7834;BME280;3962;42.696;23.354;2022-07-25T01:02:50;95265.16;;;24.31;66.04
7834;BME280;3962;42.696;23.354;2022-07-25T01:05:17;95264.31;;;24.19;66.37
7834;BME280;3962;42.696;23.354;2022-07-25T01:07:44;95257.84;;;24.32;66.02
7834;BME280;3962;42.696;23.354;2022-07-25T01:10:12;95271.19;;;24.33;66.01
7834;BME280;3962;42.696;23.354;2022-07-25T01:12:49;95266.78;;;24.21;66.54
7834;BME280;3962;42.696;23.354;2022-07-25T01:15:17;95252.22;;;24.15;66.63
7834;BME280;3962;42.696;23.354;2022-07-25T01:17:45;95261.06;;;24.11;67.08
7834;BME280;3962;42.696;23.354;2022-07-25T01:20:15;95249.72;;;24.14;67.12
7834;BME280;3962;42.696;23.354;2022-07-25T01:22:42;95256.81;;;24.15;67.02
7834;BME280;3962;42.696;23.354;2022-07-25T01:25:09;95248.19;;;24.06;67.26
7834;BME280;3962;42.696;23.354;2022-07-25T01:27:36;95255.97;;;24.03;67.40
7834;BME280;3962;42.696;23.354;2022-07-25T01:30:05;95247.22;;;24.01;67.55
7834;BME280;3962;42.696;23.354;2022-07-25T01:32:32;95252.69;;;24.12;67.38
7834;BME280;3962;42.696;23.354;2022-07-25T01:34:59;95254.44;;;24.07;67.05
7834;BME280;3962;42.696;23.354;2022-07-25T01:37:27;95258.22;;;24.06;67.37
7834;BME280;3962;42.696;23.354;2022-07-25T01:39:54;95262.63;;;24.18;67.27
7834;BME280;3962;42.696;23.354;2022-07-25T01:42:21;95257.81;;;24.20;66.65
7834;BME280;3962;42.696;23.354;2022-07-25T01:44:48;95263.44;;;24.07;67.05
7834;BME280;3962;42.696;23.354;2022-07-25T01:47:15;95253.09;;;23.98;67.47
7834;BME280;3962;42.696;23.354;2022-07-25T01:49:42;95265.09;;;24.08;67.32
7834;BME280;3962;42.696;23.354;2022-07-25T01:52:09;95271.94;;;24.11;67.12
7834;BME280;3962;42.696;23.354;2022-07-25T01:54:38;95265.09;;;24.08;67.15
7834;BME280;3962;42.696;23.354;2022-07-25T01:57:05;95263.47;;;24.19;66.74
7834;BME280;3962;42.696;23.354;2022-07-25T01:59:32;95267.84;;;24.20;66.56
7834;BME280;3962;42.696;23.354;2022-07-25T02:02:01;95267.16;;;24.24;66.85
7834;BME280;3962;42.696;23.354;2022-07-25T02:04:28;95271.91;;;24.29;66.45
7834;BME280;3962;42.696;23.354;2022-07-25T02:06:55;95268.59;;;24.27;66.66
7834;BME280;3962;42.696;23.354;2022-07-25T02:09:22;95265.97;;;24.20;66.51
7834;BME280;3962;42.696;23.354;2022-07-25T02:11:50;95266.72;;;24.27;66.20
7834;BME280;3962;42.696;23.354;2022-07-25T02:14:17;95270.09;;;24.23;66.71
7834;BME280;3962;42.696;23.354;2022-07-25T02:16:43;95263.09;;;24.15;67.07
7834;BME280;3962;42.696;23.354;2022-07-25T02:19:10;95266.28;;;24.12;66.99
7834;BME280;3962;42.696;23.354;2022-07-25T02:21:37;95267.34;;;24.11;67.27
7834;BME280;3962;42.696;23.354;2022-07-25T02:24:04;95273.81;;;24.10;67.10
7834;BME280;3962;42.696;23.354;2022-07-25T02:26:31;95275.25;;;24.13;67.24
7834;BME280;3962;42.696;23.354;2022-07-25T02:28:59;95276.91;;;24.14;67.19
7834;BME280;3962;42.696;23.354;2022-07-25T02:31:26;95261.91;;;24.11;67.01
7834;BME280;3962;42.696;23.354;2022-07-25T02:33:53;95266.66;;;24.16;67.20
7834;BME280;3962;42.696;23.354;2022-07-25T02:36:20;95263.94;;;24.16;67.27
7834;BME280;3962;42.696;23.354;2022-07-25T02:38:46;95269.13;;;24.17;67.24
7834;BME280;3962;42.696;23.354;2022-07-25T02:41:13;95257.63;;;24.04;67.80
7834;BME280;3962;42.696;23.354;2022-07-25T02:43:40;95256.59;;;23.87;68.46
7834;BME280;3962;42.696;23.354;2022-07-25T02:46:08;95256.59;;;23.87;68.90
7834;BME280;3962;42.696;23.354;2022-07-25T02:48:35;95259.53;;;23.85;68.84
7834;BME280;3962;42.696;23.354;2022-07-25T02:51:02;95260.97;;;23.88;68.70
7834;BME280;3962;42.696;23.354;2022-07-25T02:53:29;95263.47;;;23.89;68.57
7834;BME280;3962;42.696;23.354;2022-07-25T02:55:55;95270.09;;;23.93;68.26
7834;BME280;3962;42.696;23.354;2022-07-25T02:58:22;95263.16;;;23.97;68.41
7834;BME280;3962;42.696;23.354;2022-07-25T03:00:49;95269.41;;;23.98;68.31
7834;BME280;3962;42.696;23.354;2022-07-25T03:03:17;95266.63;;;23.86;68.09
7834;BME280;3962;42.696;23.354;2022-07-25T03:05:44;95266.41;;;23.88;68.08
7834;BME280;3962;42.696;23.354;2022-07-25T03:08:11;95260.19;;;23.81;67.65
7834;BME280;3962;42.696;23.354;2022-07-25T03:10:37;95264.28;;;23.72;67.51
7834;BME280;3962;42.696;23.354;2022-07-25T03:13:04;95264.13;;;23.67;67.70
7834;BME280;3962;42.696;23.354;2022-07-25T03:15:31;95267.47;;;23.69;67.43
7834;BME280;3962;42.696;23.354;2022-07-25T03:17:58;95270.19;;;23.69;67.42
7834;BME280;3962;42.696;23.354;2022-07-25T03:20:26;95268.44;;;23.74;67.23
7834;BME280;3962;42.696;23.354;2022-07-25T03:22:53;95267.91;;;23.66;66.96
7834;BME280;3962;42.696;23.354;2022-07-25T03:25:20;95263.63;;;23.58;67.21
7834;BME280;3962;42.696;23.354;2022-07-25T03:27:46;95272.19;;;23.55;67.20
7834;BME280;3962;42.696;23.354;2022-07-25T03:30:13;95271.59;;;23.53;67.30
7834;BME280;3962;42.696;23.354;2022-07-25T03:32:40;95266.63;;;23.50;67.47
7834;BME280;3962;42.696;23.354;2022-07-25T03:35:07;95268.81;;;23.42;67.46
7834;BME280;3962;42.696;23.354;2022-07-25T03:37:36;95271.31;;;23.43;67.50
7834;BME280;3962;42.696;23.354;2022-07-25T03:40:03;95263.63;;;23.40;67.56
7834;BME280;3962;42.696;23.354;2022-07-25T03:42:30;95272.59;;;23.41;67.09
7834;BME280;3962;42.696;23.354;2022-07-25T03:44:57;95268.81;;;23.42;67.21
7834;BME280;3962;42.696;23.354;2022-07-25T03:47:24;95268.81;;;23.42;67.15
7834;BME280;3962;42.696;23.354;2022-07-25T03:49:51;95273.25;;;23.36;67.27
7834;BME280;3962;42.696;23.354;2022-07-25T03:52:18;95267.28;;;23.28;67.38
7834;BME280;3962;42.696;23.354;2022-07-25T03:54:46;95273.47;;;23.35;67.67
7834;BME280;3962;42.696;23.354;2022-07-25T03:57:13;95271.16;;;23.38;67.08
7834;BME280;3962;42.696;23.354;2022-07-25T03:59:39;95285.03;;;23.30;67.46
7834;BME280;3962;42.696;23.354;2022-07-25T04:02:06;95280.34;;;23.37;67.36
7834;BME280;3962;42.696;23.354;2022-07-25T04:04:33;95290.09;;;23.45;67.06
7834;BME280;3962;42.696;23.354;2022-07-25T04:07:00;95282.00;;;23.38;66.86
7834;BME280;3962;42.696;23.354;2022-07-25T04:09:27;95288.88;;;23.41;66.59
7834;BME280;3962;42.696;23.354;2022-07-25T04:11:55;95280.06;;;23.45;66.62
7834;BME280;3962;42.696;23.354;2022-07-25T04:14:21;95278.94;;;23.53;66.26
7834;BME280;3962;42.696;23.354;2022-07-25T04:16:48;95284.88;;;23.43;66.38
7834;BME280;3962;42.696;23.354;2022-07-25T04:19:15;95283.53;;;23.52;66.32
7834;BME280;3962;42.696;23.354;2022-07-25T04:21:42;95272.84;;;23.57;65.99
7834;BME280;3962;42.696;23.354;2022-07-25T04:24:09;95283.53;;;23.70;65.52
7834;BME280;3962;42.696;23.354;2022-07-25T04:26:35;95276.91;;;23.66;65.43
7834;BME280;3962;42.696;23.354;2022-07-25T04:29:03;95271.59;;;23.71;65.44
7834;BME280;3962;42.696;23.354;2022-07-25T04:31:30;95275.63;;;23.69;65.03
7834;BME280;3962;42.696;23.354;2022-07-25T04:33:57;95283.13;;;23.67;65.01
7834;BME280;3962;42.696;23.354;2022-07-25T04:36:24;95267.38;;;23.75;64.69
7834;BME280;3962;42.696;23.354;2022-07-25T04:38:51;95269.41;;;23.80;64.74
7834;BME280;3962;42.696;23.354;2022-07-25T04:41:18;95269.50;;;23.91;64.21
7834;BME280;3962;42.696;23.354;2022-07-25T04:43:45;95288.69;;;23.96;63.86
7834;BME280;3962;42.696;23.354;2022-07-25T04:46:17;95278.78;;;24.02;63.60
7834;BME280;3962;42.696;23.354;2022-07-25T04:48:44;95269.00;;;24.12;63.17
7834;BME280;3962;42.696;23.354;2022-07-25T04:51:10;95275.78;;;24.21;62.77
7834;BME280;3962;42.696;23.354;2022-07-25T04:53:37;95276.84;;;24.20;62.61
7834;BME280;3962;42.696;23.354;2022-07-25T04:56:05;95271.09;;;24.10;63.21
7834;BME280;3962;42.696;23.354;2022-07-25T04:58:32;95265.50;;;23.94;63.33
7834;BME280;3962;42.696;23.354;2022-07-25T05:00:59;95272.00;;;23.93;63.78
7834;BME280;3962;42.696;23.354;2022-07-25T05:03:27;95268.22;;;23.94;63.94
7834;BME280;3962;42.696;23.354;2022-07-25T05:05:54;95274.25;;;23.96;63.34
7834;BME280;3962;42.696;23.354;2022-07-25T05:08:21;95283.09;;;23.91;63.10
7834;BME280;3962;42.696;23.354;2022-07-25T05:10:48;95276.78;;;24.09;62.83
7834;BME280;3962;42.696;23.354;2022-07-25T05:13:15;95279.19;;;24.17;62.27
7834;BME280;3962;42.696;23.354;2022-07-25T05:15:41;95279.78;;;24.19;62.05
7834;BME280;3962;42.696;23.354;2022-07-25T05:18:08;95283.25;;;24.26;62.18
7834;BME280;3962;42.696;23.354;2022-07-25T05:20:37;95281.72;;;24.30;61.95
7834;BME280;3962;42.696;23.354;2022-07-25T05:23:04;95290.53;;;24.43;61.78
7834;BME280;3962;42.696;23.354;2022-07-25T05:25:31;95290.41;;;24.50;61.54
7834;BME280;3962;42.696;23.354;2022-07-25T05:27:57;95292.91;;;24.51;61.62
7834;BME280;3962;42.696;23.354;2022-07-25T05:30:25;95290.34;;;24.56;61.47
7834;BME280;3962;42.696;23.354;2022-07-25T05:32:51;95290.34;;;24.56;60.80
7834;BME280;3962;42.696;23.354;2022-07-25T05:35:19;95290.72;;;24.60;60.64
7834;BME280;3962;42.696;23.354;2022-07-25T05:37:47;95277.84;;;24.67;60.52
7834;BME280;3962;42.696;23.354;2022-07-25T05:40:13;95288.34;;;24.63;60.35
7834;BME280;3962;42.696;23.354;2022-07-25T05:42:40;95285.53;;;24.70;60.27
7834;BME280;3962;42.696;23.354;2022-07-25T05:45:08;95286.50;;;24.75;60.47
7834;BME280;3962;42.696;23.354;2022-07-25T05:47:34;95289.59;;;24.79;59.86
7834;BME280;3962;42.696;23.354;2022-07-25T05:50:02;95293.59;;;24.76;59.85
7834;BME280;3962;42.696;23.354;2022-07-25T05:52:29;95290.28;;;24.74;59.73
7834;BME280;3962;42.696;23.354;2022-07-25T05:54:57;95286.94;;;24.72;59.94
7834;BME280;3962;42.696;23.354;2022-07-25T05:57:24;95281.31;;;24.97;59.28
7834;BME280;3962;42.696;23.354;2022-07-25T05:59:50;95273.63;;;25.05;59.28
7834;BME280;3962;42.696;23.354;2022-07-25T06:02:17;95280.63;;;25.13;58.92
7834;BME280;3962;42.696;23.354;2022-07-25T06:04:44;95278.16;;;25.23;58.19
7834;BME280;3962;42.696;23.354;2022-07-25T06:07:11;95275.78;;;25.38;58.05
7834;BME280;3962;42.696;23.354;2022-07-25T06:09:37;95270.69;;;25.41;58.16
7834;BME280;3962;42.696;23.354;2022-07-25T06:12:06;95264.75;;;25.56;57.57
7834;BME280;3962;42.696;23.354;2022-07-25T06:14:33;95263.91;;;25.67;58.02
7834;BME280;3962;42.696;23.354;2022-07-25T06:16:59;95263.78;;;25.62;57.67
7834;BME280;3962;42.696;23.354;2022-07-25T06:19:26;95274.91;;;25.60;57.57
7834;BME280;3962;42.696;23.354;2022-07-25T06:21:53;95275.91;;;25.54;57.31
7834;BME280;3962;42.696;23.354;2022-07-25T06:24:20;95272.34;;;25.54;57.88
7834;BME280;3962;42.696;23.354;2022-07-25T06:26:46;95263.81;;;25.50;57.57
7834;BME280;3962;42.696;23.354;2022-07-25T06:29:15;95269.91;;;25.80;56.89
7834;BME280;3962;42.696;23.354;2022-07-25T06:31:41;95275.03;;;25.88;56.64
7834;BME280;3962;42.696;23.354;2022-07-25T06:34:08;95271.78;;;26.03;56.05
7834;BME280;3962;42.696;23.354;2022-07-25T06:36:35;95261.50;;;25.82;56.34
7834;BME280;3962;42.696;23.354;2022-07-25T06:39:02;95264.81;;;25.95;56.52
7834;BME280;3962;42.696;23.354;2022-07-25T06:41:29;95267.16;;;26.03;55.73
7834;BME280;3962;42.696;23.354;2022-07-25T06:43:56;95270.38;;;26.28;55.70
7834;BME280;3962;42.696;23.354;2022-07-25T06:46:24;95267.06;;;26.54;55.25
7834;BME280;3962;42.696;23.354;2022-07-25T06:48:54;95259.34;;;26.51;54.72
7834;BME280;3962;42.696;23.354;2022-07-25T06:51:20;95262.53;;;26.32;55.01
7834;BME280;3962;42.696;23.354;2022-07-25T06:53:48;95260.16;;;26.35;55.44
7834;BME280;3962;42.696;23.354;2022-07-25T06:56:15;95260.88;;;26.59;55.05
7834;BME280;3962;42.696;23.354;2022-07-25T06:58:41;95252.78;;;26.64;54.52
7834;BME280;3962;42.696;23.354;2022-07-25T07:01:08;95258.00;;;26.82;54.26
7834;BME280;3962;42.696;23.354;2022-07-25T07:03:36;95247.28;;;26.92;53.90
7834;BME280;3962;42.696;23.354;2022-07-25T07:06:04;95263.00;;;26.85;54.03
7834;BME280;3962;42.696;23.354;2022-07-25T07:08:31;95260.09;;;27.08;54.27
7834;BME280;3962;42.696;23.354;2022-07-25T07:10:58;95254.19;;;27.48;53.09
7834;BME280;3962;42.696;23.354;2022-07-25T07:13:26;95256.78;;;28.67;49.82
7834;BME280;3962;42.696;23.354;2022-07-25T07:15:52;95263.94;;;28.95;48.52
7834;BME280;3962;42.696;23.354;2022-07-25T07:18:20;95264.19;;;29.61;47.68
7834;BME280;3962;42.696;23.354;2022-07-25T07:20:49;95259.75;;;30.02;46.41
7834;BME280;3962;42.696;23.354;2022-07-25T07:23:17;95268.59;;;31.00;43.58
7834;BME280;3962;42.696;23.354;2022-07-25T07:25:44;95260.13;;;30.20;44.74
7834;BME280;3962;42.696;23.354;2022-07-25T07:28:11;95258.69;;;30.94;44.06
7834;BME280;3962;42.696;23.354;2022-07-25T07:30:38;95260.06;;;31.82;40.36
7834;BME280;3962;42.696;23.354;2022-07-25T07:33:05;95246.63;;;31.35;40.82
7834;BME280;3962;42.696;23.354;2022-07-25T07:35:32;95254.56;;;31.72;40.52
7834;BME280;3962;42.696;23.354;2022-07-25T07:38:00;95250.31;;;32.14;40.26
7834;BME280;3962;42.696;23.354;2022-07-25T07:40:27;95247.84;;;32.22;39.73
7834;BME280;3962;42.696;23.354;2022-07-25T07:42:53;95249.75;;;32.27;40.29
7834;BME280;3962;42.696;23.354;2022-07-25T07:45:23;95262.34;;;32.91;38.74
7834;BME280;3962;42.696;23.354;2022-07-25T07:47:51;95249.69;;;32.42;40.02
7834;BME280;3962;42.696;23.354;2022-07-25T07:50:20;95250.56;;;32.27;39.02
7834;BME280;3962;42.696;23.354;2022-07-25T07:52:48;95248.00;;;31.48;40.63
7834;BME280;3962;42.696;23.354;2022-07-25T07:55:16;95252.09;;;31.75;40.82
7834;BME280;3962;42.696;23.354;2022-07-25T07:58:01;95256.72;;;31.95;40.13
7834;BME280;3962;42.696;23.354;2022-07-25T08:00:29;95255.16;;;31.44;39.97
7834;BME280;3962;42.696;23.354;2022-07-25T08:02:57;95245.47;;;31.61;39.84
7834;BME280;3962;42.696;23.354;2022-07-25T08:05:26;95251.25;;;31.85;39.92
7834;BME280;3962;42.696;23.354;2022-07-25T08:07:53;95253.88;;;32.19;40.28
7834;BME280;3962;42.696;23.354;2022-07-25T08:10:24;95253.13;;;32.04;39.72
7834;BME280;3962;42.696;23.354;2022-07-25T08:12:51;95258.69;;;32.57;39.13
7834;BME280;3962;42.696;23.354;2022-07-25T08:15:19;95241.97;;;32.39;38.22
7834;BME280;3962;42.696;23.354;2022-07-25T08:17:47;95246.88;;;31.69;40.35
7834;BME280;3962;42.696;23.354;2022-07-25T08:20:15;95242.16;;;30.74;42.30
7834;BME280;3962;42.696;23.354;2022-07-25T08:22:43;95245.50;;;30.96;41.38
7834;BME280;3962;42.696;23.354;2022-07-25T08:25:14;95256.19;;;31.93;39.31
7834;BME280;3962;42.696;23.354;2022-07-25T08:27:43;95255.19;;;32.90;37.45
7834;BME280;3962;42.696;23.354;2022-07-25T08:30:12;95255.00;;;33.15;37.12
7834;BME280;3962;42.696;23.354;2022-07-25T08:32:47;95249.69;;;32.90;37.91
7834;BME280;3962;42.696;23.354;2022-07-25T08:35:14;95246.41;;;33.27;36.59
7834;BME280;3962;42.696;23.354;2022-07-25T08:37:41;95254.13;;;32.86;37.38
7834;BME280;3962;42.696;23.354;2022-07-25T08:40:09;95253.84;;;32.88;38.34
7834;BME280;3962;42.696;23.354;2022-07-25T08:42:37;95249.84;;;32.60;38.69
7834;BME280;3962;42.696;23.354;2022-07-25T08:45:07;95243.53;;;32.55;37.50
7834;BME280;3962;42.696;23.354;2022-07-25T08:47:35;95246.97;;;32.85;37.63
7834;BME280;3962;42.696;23.354;2022-07-25T08:50:04;95239.69;;;33.66;36.42
7834;BME280;3962;42.696;23.354;2022-07-25T08:52:33;95248.63;;;33.87;36.61
7834;BME280;3962;42.696;23.354;2022-07-25T08:55:02;95240.75;;;33.42;36.27
7834;BME280;3962;42.696;23.354;2022-07-25T08:57:29;95236.72;;;33.29;37.29
7834;BME280;3962;42.696;23.354;2022-07-25T08:59:57;95243.34;;;33.28;36.98
7834;BME280;3962;42.696;23.354;2022-07-25T09:02:26;95241.63;;;31.62;39.66
7834;BME280;3962;42.696;23.354;2022-07-25T09:04:53;95237.78;;;30.83;40.97
7834;BME280;3962;42.696;23.354;2022-07-25T09:07:31;95233.13;;;31.09;40.35
7834;BME280;3962;42.696;23.354;2022-07-25T09:09:58;95235.50;;;32.05;39.20
7834;BME280;3962;42.696;23.354;2022-07-25T09:12:25;95231.72;;;32.49;38.16
7834;BME280;3962;42.696;23.354;2022-07-25T09:14:53;95239.56;;;32.17;38.09
7834;BME280;3962;42.696;23.354;2022-07-25T09:17:20;95226.75;;;32.51;38.08
7834;BME280;3962;42.696;23.354;2022-07-25T09:19:53;95224.41;;;33.17;36.89
7834;BME280;3962;42.696;23.354;2022-07-25T09:22:20;95214.66;;;34.10;35.23
7834;BME280;3962;42.696;23.354;2022-07-25T09:24:47;95203.16;;;34.03;35.98
7834;BME280;3962;42.696;23.354;2022-07-25T09:27:14;95200.09;;;33.52;36.20
7834;BME280;3962;42.696;23.354;2022-07-25T09:29:43;95196.91;;;32.15;38.19
7834;BME280;3962;42.696;23.354;2022-07-25T09:32:15;95200.94;;;31.54;39.43
7834;BME280;3962;42.696;23.354;2022-07-25T09:34:44;95200.44;;;31.37;39.13
7834;BME280;3962;42.696;23.354;2022-07-25T09:37:13;95198.50;;;31.03;39.30
7834;BME280;3962;42.696;23.354;2022-07-25T09:39:42;95202.94;;;31.04;40.40
7834;BME280;3962;42.696;23.354;2022-07-25T09:42:17;95203.44;;;31.41;39.15
7834;BME280;3962;42.696;23.354;2022-07-25T09:44:59;95207.03;;;30.86;39.98
7834;BME280;3962;42.696;23.354;2022-07-25T09:47:29;95206.34;;;31.99;38.40
7834;BME280;3962;42.696;23.354;2022-07-25T09:49:56;95205.06;;;31.57;38.22
7834;BME280;3962;42.696;23.354;2022-07-25T09:52:24;95207.88;;;30.97;39.61
7834;BME280;3962;42.696;23.354;2022-07-25T09:54:51;95210.59;;;31.42;38.26
7834;BME280;3962;42.696;23.354;2022-07-25T09:57:19;95201.09;;;31.98;37.30
7834;BME280;3962;42.696;23.354;2022-07-25T09:59:46;95203.31;;;32.59;35.82
7834;BME280;3962;42.696;23.354;2022-07-25T10:02:22;95200.16;;;32.80;36.31
7834;BME280;3962;42.696;23.354;2022-07-25T10:05:00;95202.94;;;33.14;33.98
7834;BME280;3962;42.696;23.354;2022-07-25T10:07:35;95207.47;;;32.95;34.53
7834;BME280;3962;42.696;23.354;2022-07-25T10:10:03;95193.94;;;32.55;34.32
7834;BME280;3962;42.696;23.354;2022-07-25T10:12:30;95191.06;;;33.13;33.62
7834;BME280;3962;42.696;23.354;2022-07-25T10:15:06;95184.25;;;33.63;33.50
7834;BME280;3962;42.696;23.354;2022-07-25T10:17:35;95185.88;;;32.68;35.77
7834;BME280;3962;42.696;23.354;2022-07-25T10:20:03;95195.47;;;31.49;37.99
7834;BME280;3962;42.696;23.354;2022-07-25T10:22:37;95188.34;;;30.93;39.19
7834;BME280;3962;42.696;23.354;2022-07-25T10:25:11;95181.75;;;31.29;38.72
7834;BME280;3962;42.696;23.354;2022-07-25T10:27:43;95184.38;;;31.89;36.49
7834;BME280;3962;42.696;23.354;2022-07-25T10:30:19;95186.88;;;32.39;36.29
7834;BME280;3962;42.696;23.354;2022-07-25T10:32:55;95180.16;;;32.60;35.48
7834;BME280;3962;42.696;23.354;2022-07-25T10:35:23;95171.72;;;33.18;34.28
7834;BME280;3962;42.696;23.354;2022-07-25T10:37:54;95183.13;;;33.07;35.33
7834;BME280;3962;42.696;23.354;2022-07-25T10:40:26;95190.16;;;33.23;33.24
7834;BME280;3962;42.696;23.354;2022-07-25T10:43:01;95173.25;;;33.86;32.32
7834;BME280;3962;42.696;23.354;2022-07-25T10:45:35;95182.19;;;33.50;33.38
7834;BME280;3962;42.696;23.354;2022-07-25T10:48:06;95171.09;;;33.83;32.09
7834;BME280;3962;42.696;23.354;2022-07-25T10:50:33;95168.88;;;32.95;33.76
7834;BME280;3962;42.696;23.354;2022-07-25T10:53:01;95174.25;;;32.33;34.49
7834;BME280;3962;42.696;23.354;2022-07-25T10:55:34;95161.91;;;32.74;33.82
7834;BME280;3962;42.696;23.354;2022-07-25T10:58:04;95164.56;;;33.17;32.59
7834;BME280;3962;42.696;23.354;2022-07-25T11:00:31;95155.97;;;33.52;33.48
7834;BME280;3962;42.696;23.354;2022-07-25T11:02:59;95150.47;;;33.24;31.91
7834;BME280;3962;42.696;23.354;2022-07-25T11:05:25;95159.16;;;33.64;32.24
7834;BME280;3962;42.696;23.354;2022-07-25T11:07:54;95149.00;;;34.07;31.35
7834;BME280;3962;42.696;23.354;2022-07-25T11:10:26;95151.97;;;34.34;31.44
7834;BME280;3962;42.696;23.354;2022-07-25T11:12:53;95150.69;;;34.45;31.43
7834;BME280;3962;42.696;23.354;2022-07-25T11:15:22;95147.81;;;32.37;33.96
7834;BME280;3962;42.696;23.354;2022-07-25T11:17:49;95139.81;;;31.82;34.19
7834;BME280;3962;42.696;23.354;2022-07-25T11:20:16;95144.84;;;31.50;34.97
7834;BME280;3962;42.696;23.354;2022-07-25T11:22:50;95138.56;;;31.35;34.76
7834;BME280;3962;42.696;23.354;2022-07-25T11:25:19;95147.41;;;32.05;33.84
7834;BME280;3962;42.696;23.354;2022-07-25T11:27:54;95132.38;;;32.79;33.45
7834;BME280;3962;42.696;23.354;2022-07-25T11:30:22;95139.81;;;33.07;32.11
7834;BME280;3962;42.696;23.354;2022-07-25T11:32:50;95130.66;;;33.69;31.25
7834;BME280;3962;42.696;23.354;2022-07-25T11:35:20;95131.41;;;33.79;31.48
7834;BME280;3962;42.696;23.354;2022-07-25T11:37:48;95121.91;;;33.85;30.42
7834;BME280;3962;42.696;23.354;2022-07-25T11:40:16;95107.16;;;33.95;31.85
7834;BME280;3962;42.696;23.354;2022-07-25T11:42:45;95127.72;;;34.07;31.30
7834;BME280;3962;42.696;23.354;2022-07-25T11:45:18;95114.63;;;33.71;32.18
7834;BME280;3962;42.696;23.354;2022-07-25T11:47:46;95121.06;;;34.08;31.49
7834;BME280;3962;42.696;23.354;2022-07-25T11:50:13;95125.75;;;34.31;30.88
7834;BME280;3962;42.696;23.354;2022-07-25T11:52:41;95122.81;;;34.41;31.34
7834;BME280;3962;42.696;23.354;2022-07-25T11:55:11;95108.97;;;34.04;31.39
7834;BME280;3962;42.696;23.354;2022-07-25T11:57:40;95112.72;;;33.43;32.12
7834;BME280;3962;42.696;23.354;2022-07-25T12:00:14;95106.28;;;32.62;33.24
7834;BME280;3962;42.696;23.354;2022-07-25T12:02:44;95109.19;;;31.99;34.54
7834;BME280;3962;42.696;23.354;2022-07-25T12:05:13;95112.59;;;32.29;34.17
7834;BME280;3962;42.696;23.354;2022-07-25T12:07:42;95097.25;;;32.56;34.46
7834;BME280;3962;42.696;23.354;2022-07-25T12:10:13;95095.38;;;32.03;35.23
7834;BME280;3962;42.696;23.354;2022-07-25T12:12:43;95098.28;;;31.74;36.32
7834;BME280;3962;42.696;23.354;2022-07-25T12:15:11;95094.94;;;31.82;35.54
7834;BME280;3962;42.696;23.354;2022-07-25T12:17:39;95090.78;;;31.89;34.74
7834;BME280;3962;42.696;23.354;2022-07-25T12:20:13;95089.44;;;32.35;34.10
7834;BME280;3962;42.696;23.354;2022-07-25T12:22:41;95096.03;;;33.06;33.08
7834;BME280;3962;42.696;23.354;2022-07-25T12:25:08;95083.34;;;33.57;32.24
7834;BME280;3962;42.696;23.354;2022-07-25T12:27:35;95088.06;;;33.56;33.18
7834;BME280;3962;42.696;23.354;2022-07-25T12:30:02;95085.94;;;32.91;34.55
7834;BME280;3962;42.696;23.354;2022-07-25T12:32:29;95073.91;;;33.11;34.01
7834;BME280;3962;42.696;23.354;2022-07-25T12:34:56;95075.41;;;33.27;32.63
7834;BME280;3962;42.696;23.354;2022-07-25T12:37:25;95073.78;;;33.49;32.09
7834;BME280;3962;42.696;23.354;2022-07-25T12:39:53;95079.97;;;33.13;32.38
7834;BME280;3962;42.696;23.354;2022-07-25T12:42:20;95074.84;;;32.73;32.53
7834;BME280;3962;42.696;23.354;2022-07-25T12:44:46;95072.91;;;31.92;33.65
7834;BME280;3962;42.696;23.354;2022-07-25T12:47:14;95072.38;;;31.85;34.32
7834;BME280;3962;42.696;23.354;2022-07-25T12:49:41;95076.44;;;32.40;33.40
7834;BME280;3962;42.696;23.354;2022-07-25T12:52:08;95057.59;;;32.52;32.87
7834;BME280;3962;42.696;23.354;2022-07-25T12:54:36;95059.75;;;32.60;33.32
7834;BME280;3962;42.696;23.354;2022-07-25T12:57:03;95063.75;;;32.78;33.29
7834;BME280;3962;42.696;23.354;2022-07-25T12:59:30;95068.22;;;33.02;32.51
7834;BME280;3962;42.696;23.354;2022-07-25T13:01:57;95061.78;;;33.59;32.32
7834;BME280;3962;42.696;23.354;2022-07-25T13:04:24;95050.41;;;33.42;31.54
7834;BME280;3962;42.696;23.354;2022-07-25T13:06:51;95056.22;;;32.88;32.15
7834;BME280;3962;42.696;23.354;2022-07-25T13:09:18;95055.34;;;32.59;32.31
7834;BME280;3962;42.696;23.354;2022-07-25T13:11:46;95051.84;;;32.49;32.27
7834;BME280;3962;42.696;23.354;2022-07-25T13:14:13;95047.22;;;32.78;32.41